Airfield :
LOGIN :

Register | Disclaimer

   EN    FR    IT 

 










Legend :    VFR   Marginal VFR   IFR   Intensive IFR   Very Intensive IFR
Visi :
Ceiling :
>= 8 km
>= 3000ft
5 to 8 km
1000 to 3000 ft
1500m to 5 km
500 to 1000 ft
800 to 1500m
200 to 500 ft
< 800m
< 200 ft
Symbols :   Thunderstorms  Fog  Heavy snow  Heavy precipitations  Wind > 20 kt
SIGMETs :     Misc.  Thunderstorms  Icing  Turbulence  Mountain Waves  Volcanic Ashes






- Airport Elevation : 257 ft
- IATA code : MAN


EGCC - Manchester

CURRENT METAR :
  • 071820Z AUTO 20008KT 170V230 9999 BKN013 09/07 Q1005 NOSIG

EXPIRED METARs :
  • 071750Z AUTO 19008KT 160V220 9999 BKN014 BKN018 09/07 Q1005 NOSIG
  • 071720Z AUTO 20009KT 9999 BKN020 10/08 Q1006
  • 071650Z AUTO 19008KT 140V230 9999 FEW021 10/07 Q1007 NOSIG
  • 071620Z AUTO 19007KT 150V220 9999 NCD 10/07 Q1007 NOSIG
  • 071550Z AUTO 20006KT 150V230 9999 -RA SCT035 10/07 Q1008 NOSIG

TAF AMD TAF EGCC
Valid from the 07 at 18:00 until the 09 at 00:00 UTC


071804Z 0718/0824 21009KT 9999 SCT025
BECMG 0718/0721 20015G25KT
PROB30
TEMPO 0718/0721 BKN012
TEMPO 0721/0802 21020G35KT 8000 -RA BKN012
PROB30
TEMPO 0800/0802 4000 RA BKN009
BECMG 0802/0805 27013KT
TEMPO 0802/0818 28016G26KT 7000 SHRA
PROB30
TEMPO 0809/0815 4000 +SHRA BKN012
BECMG 0815/0818 21014KT
TEMPO 0815/0818 22018G28KT
PROB40
TEMPO 0818/0824 7000 SHRA
PROB30
TEMPO 0821/0824 3000 +SHRA
ATIS : +44 161 499 2324



MET'MAP, your aeronautical weather chart ! - Copyright ORBIFLY December 2007 - Disclaimer

ORBIFLY MET'MAP TEAM :

Programming & Development : Alexandra Zaïnal
Concept & original design : Baudouin d'Aumeries
Assistance for programming : Marc-Olivier Méhu
Technical & hardware support : Manuel Goepfert

Contact : metmap@orbifly.com




SOURCES & CREDITS :

   NOAA